Time;durP1;ratioP1;P1;durP2;ratioP2;P2;SDS_P1;SDS_P2;PMS_P1;PMS_P2;Temp;Humidity;BMP_temperature;BMP_pressure;BME280_temperature;BME280_humidity;BME280_pressure;Samples;Min_cycle;Max_cycle;Signal;HPM_P1;HPM_P2
2022/04/19 00:00:44;;;;;;;2.47;1.80;;;;;;;3.68;70.23;93423.88;5084515;28;20111;-86
2022/04/19 00:03:12;;;;;;;2.03;1.30;;;;;;;3.66;70.27;93416.22;5084746;28;20032;-86
2022/04/19 00:05:38;;;;;;;3.25;1.75;;;;;;;3.68;70.18;93411.47;5084658;28;20086;-85
2022/04/19 00:08:05;;;;;;;3.17;1.85;;;;;;;3.64;70.06;93414.94;5084648;28;20021;-85
2022/04/19 00:10:31;;;;;;;2.47;1.50;;;;;;;3.66;70.20;93408.31;5084405;28;20054;-86
2022/04/19 00:12:58;;;;;;;2.67;1.60;;;;;;;3.63;70.15;93408.91;5084824;28;20025;-91
2022/04/19 00:15:28;;;;;;;2.33;1.30;;;;;;;3.57;70.49;93404.75;5085967;28;20024;-91
2022/04/19 00:17:55;;;;;;;2.72;1.63;;;;;;;3.61;70.25;93397.84;5085023;28;20074;-90
2022/04/19 00:20:21;;;;;;;2.92;1.52;;;;;;;3.61;70.29;93397.84;5069383;28;20033;-93
2022/04/19 00:22:49;;;;;;;2.72;1.33;;;;;;;3.58;70.41;93399.22;5085682;28;20035;-90
2022/04/19 00:25:15;;;;;;;2.17;1.38;;;;;;;3.56;70.44;93400.53;5085674;28;20091;-91
2022/04/19 00:27:41;;;;;;;1.85;1.38;;;;;;;3.58;70.54;93401.03;5085664;28;20120;-90
2022/04/19 00:30:07;;;;;;;2.67;1.52;;;;;;;3.57;70.35;93387.09;5084768;28;20020;-90
2022/04/19 00:32:32;;;;;;;2.03;1.20;;;;;;;3.52;70.39;93384.53;5084886;28;20016;-90
2022/04/19 00:34:59;;;;;;;2.13;1.10;;;;;;;3.51;70.35;93392.69;5085024;28;20033;-90
2022/04/19 00:37:25;;;;;;;2.05;1.33;;;;;;;3.45;70.50;93383.28;5084995;28;20046;-90
2022/04/19 00:39:50;;;;;;;1.38;0.93;;;;;;;3.45;70.49;93378.00;5084664;28;20048;-90
2022/04/19 00:42:17;;;;;;;2.63;1.15;;;;;;;3.51;70.52;93379.53;5084604;28;20083;-90
2022/04/19 00:44:43;;;;;;;1.67;1.13;;;;;;;3.49;70.46;93379.78;5066782;28;20027;-90
2022/04/19 00:47:10;;;;;;;2.05;1.10;;;;;;;3.47;70.62;93376.66;5084691;28;20288;-90
2022/04/19 00:49:38;;;;;;;1.73;1.00;;;;;;;3.51;70.52;93372.38;5084374;28;20016;-90
2022/04/19 00:52:05;;;;;;;2.88;1.20;;;;;;;3.50;70.28;93373.47;5084688;28;20069;-89
2022/04/19 00:54:31;;;;;;;1.55;0.90;;;;;;;3.41;70.72;93373.28;5084239;28;20032;-88
2022/04/19 00:56:57;;;;;;;1.17;0.85;;;;;;;3.47;70.67;93373.25;5084219;28;20390;-88
2022/04/19 00:59:22;;;;;;;1.70;0.93;;;;;;;3.37;70.57;93371.50;5084303;28;20033;-90
2022/04/19 01:01:49;;;;;;;1.95;1.10;;;;;;;3.43;70.50;93370.38;5083270;28;20063;-89
2022/04/19 01:04:18;;;;;;;1.95;1.08;;;;;;;3.41;70.58;93364.59;5085875;28;20054;-91
2022/04/19 01:06:47;;;;;;;1.33;0.80;;;;;;;3.39;70.78;93353.56;5086389;28;20020;-91
2022/04/19 01:09:15;;;;;;;1.88;1.15;;;;;;;3.36;70.75;93367.31;5085894;28;20020;-91
2022/04/19 01:14:30;;;;;;;2.22;1.00;;;;;;;3.35;70.87;93368.34;5085687;28;20082;-92
2022/04/19 01:16:57;;;;;;;2.38;1.10;;;;;;;3.33;70.83;93366.00;5067081;28;20198;-92
2022/04/19 01:19:26;;;;;;;1.83;1.02;;;;;;;3.33;70.90;93362.56;5084655;28;20035;-92
2022/04/19 01:22:00;;;;;;;2.35;1.05;;;;;;;3.30;71.16;93366.56;5083857;28;20085;-92
2022/04/19 01:24:26;;;;;;;2.30;1.33;;;;;;;3.20;71.45;93356.91;5066885;28;20218;-91
2022/04/19 01:26:57;;;;;;;2.13;1.30;;;;;;;3.27;71.21;93353.16;5084447;28;20088;-92
2022/04/19 01:29:24;;;;;;;2.33;1.30;;;;;;;3.30;71.23;93361.28;5066370;28;20020;-90
2022/04/19 01:31:53;;;;;;;2.10;1.27;;;;;;;3.33;71.40;93365.22;5084751;28;20058;-92
2022/04/19 01:34:20;;;;;;;5.45;1.33;;;;;;;3.34;71.29;93357.03;5086234;28;20039;-95
2022/04/19 01:36:46;;;;;;;2.90;1.60;;;;;;;3.33;70.94;93349.41;5085050;28;20334;-95
2022/04/19 01:39:14;;;;;;;3.13;1.35;;;;;;;3.25;71.37;93348.16;5084995;28;20031;-95
2022/04/19 01:41:40;;;;;;;2.92;1.67;;;;;;;3.20;71.58;93350.88;5085047;28;20171;-95
2022/04/19 01:44:07;;;;;;;2.80;1.60;;;;;;;3.19;71.73;93349.28;5084729;28;20021;-95
2022/04/19 01:46:33;;;;;;;2.63;1.60;;;;;;;3.14;71.59;93352.75;5067364;28;20033;-96
2022/04/19 01:49:01;;;;;;;3.03;1.45;;;;;;;3.18;71.61;93360.91;5084414;28;20024;-90
2022/04/19 01:51:30;;;;;;;2.15;1.30;;;;;;;3.24;71.89;93354.50;5083987;28;20093;-91
2022/04/19 01:53:56;;;;;;;3.22;1.38;;;;;;;3.26;71.56;93360.28;5083865;28;20020;-91
2022/04/19 01:56:22;;;;;;;2.30;1.60;;;;;;;3.14;71.71;93357.25;5083874;28;20028;-90
2022/04/19 01:58:59;;;;;;;1.92;1.33;;;;;;;3.13;72.12;93363.56;5066758;28;20104;-93
2022/04/19 02:01:25;;;;;;;2.47;1.80;;;;;;;2.75;72.74;93355.50;5083746;28;20021;-88
2022/04/19 02:03:50;;;;;;;2.67;1.67;;;;;;;2.83;72.88;93357.53;5065088;28;20094;-89
2022/04/19 02:06:17;;;;;;;2.53;1.65;;;;;;;2.91;72.95;93362.19;5082908;28;20021;-89
2022/04/19 02:08:43;;;;;;;3.28;1.85;;;;;;;2.88;73.28;93360.09;5083114;28;20091;-88
2022/04/19 02:11:09;;;;;;;3.72;2.20;;;;;;;2.85;73.47;93355.41;5064988;28;20090;-89
2022/04/19 02:13:34;;;;;;;4.60;2.00;;;;;;;2.85;73.43;93363.31;5086923;28;20032;-88
2022/04/19 02:16:00;;;;;;;3.00;2.00;;;;;;;2.84;73.34;93343.28;5087103;28;20073;-88
2022/04/19 02:18:26;;;;;;;2.97;2.20;;;;;;;2.88;73.68;93346.94;5087279;28;20032;-88
2022/04/19 02:20:51;;;;;;;4.65;2.30;;;;;;;2.90;73.49;93350.09;5087066;28;20207;-90
2022/04/19 02:23:17;;;;;;;3.85;2.22;;;;;;;2.97;73.26;93347.94;5069060;28;20364;-89
2022/04/19 02:25:42;;;;;;;3.97;2.47;;;;;;;2.96;73.24;93348.97;5086950;28;20052;-89
2022/04/19 02:28:10;;;;;;;4.20;2.40;;;;;;;2.88;72.86;93346.94;5086766;28;20036;-89
2022/04/19 02:30:36;;;;;;;3.58;2.40;;;;;;;2.74;73.63;93348.66;5086858;28;20275;-89
2022/04/19 02:33:02;;;;;;;4.78;2.83;;;;;;;2.54;74.14;93350.38;5087068;28;20051;-89
2022/04/19 02:35:28;;;;;;;4.35;2.63;;;;;;;2.61;74.24;93350.84;5086682;28;20226;-88
2022/04/19 02:37:56;;;;;;;4.85;2.83;;;;;;;2.65;74.27;93355.56;5086955;28;20052;-89
2022/04/19 02:40:23;;;;;;;3.63;2.53;;;;;;;2.75;74.35;93350.22;5087000;28;20028;-90
2022/04/19 02:42:51;;;;;;;3.40;2.22;;;;;;;2.84;73.95;93353.03;5086761;28;20047;-89
2022/04/19 02:45:19;;;;;;;4.38;2.33;;;;;;;2.86;73.78;93356.19;5086634;28;20323;-89
2022/04/19 02:47:45;;;;;;;4.25;2.40;;;;;;;2.79;73.94;93359.16;5086832;28;20039;-89
2022/04/19 02:50:11;;;;;;;3.40;2.38;;;;;;;2.82;73.79;93350.69;5069156;28;20028;-91
2022/04/19 02:52:37;;;;;;;3.55;2.10;;;;;;;2.81;73.93;93349.91;5086987;28;20027;-91
2022/04/19 02:55:03;;;;;;;3.45;2.30;;;;;;;2.88;73.67;93349.56;5087464;28;20048;-90
2022/04/19 02:57:29;;;;;;;4.03;2.47;;;;;;;2.97;73.39;93363.72;5093602;28;20066;-93
2022/04/19 02:59:54;;;;;;;3.33;2.00;;;;;;;3.00;73.24;93362.38;5072417;28;20024;-93
2022/04/19 03:02:20;;;;;;;4.43;2.03;;;;;;;3.01;73.06;93358.66;5087642;28;20024;-93
2022/04/19 03:04:46;;;;;;;4.78;2.10;;;;;;;3.04;72.77;93362.59;5069126;28;20024;-89
2022/04/19 03:07:14;;;;;;;3.10;2.20;;;;;;;3.00;72.93;93376.31;5086131;28;20040;-87
2022/04/19 03:09:43;;;;;;;3.80;2.15;;;;;;;3.01;72.55;93370.00;5085958;28;20013;-87
2022/04/19 03:12:15;;;;;;;3.80;2.08;;;;;;;3.07;72.18;93375.22;5086025;28;20028;-87
2022/04/19 03:14:41;;;;;;;4.40;1.98;;;;;;;2.97;72.57;93379.53;5085788;28;20021;-88
2022/04/19 03:17:07;;;;;;;5.03;2.28;;;;;;;2.85;72.79;93386.19;5085755;28;20392;-87
2022/04/19 03:19:33;;;;;;;3.03;2.15;;;;;;;2.60;72.60;93382.69;5085681;28;20016;-89
2022/04/19 03:21:58;;;;;;;5.40;2.30;;;;;;;2.66;72.99;93378.97;5086561;28;20017;-89
2022/04/19 03:29:52;;;;;;;4.72;2.60;;;;;;;2.80;73.11;93384.38;5085479;28;20035;-88
2022/04/19 03:32:19;;;;;;;4.30;2.80;;;;;;;2.84;73.18;93395.16;5085269;28;20020;-86
2022/04/19 03:34:49;;;;;;;3.97;2.50;;;;;;;2.88;73.21;93390.91;5085441;28;20059;-86
2022/04/19 03:37:15;;;;;;;3.80;2.75;;;;;;;2.93;73.02;93396.94;5085319;28;20040;-86
2022/04/19 03:39:41;;;;;;;5.10;2.60;;;;;;;2.98;73.04;93394.22;5084987;28;20056;-86
2022/04/19 03:42:08;;;;;;;5.25;2.97;;;;;;;3.04;72.75;93400.25;5084945;28;20253;-86
2022/04/19 03:44:34;;;;;;;4.78;2.75;;;;;;;2.96;72.67;93398.22;5085033;28;20032;-86
2022/04/19 03:47:09;;;;;;;4.10;2.67;;;;;;;2.99;72.78;93403.72;5085314;28;20335;-87
2022/04/19 03:49:36;;;;;;;4.90;3.30;;;;;;;3.05;72.55;93403.66;5084998;28;20020;-87
2022/04/19 03:52:02;;;;;;;5.38;3.40;;;;;;;3.02;72.83;93399.75;5084703;28;20020;-86
2022/04/19 03:54:27;;;;;;;5.03;3.92;;;;;;;3.00;72.70;93410.53;5085054;28;20081;-87
2022/04/19 03:56:54;;;;;;;6.47;3.95;;;;;;;2.91;73.30;93406.94;5084868;28;20319;-87
2022/04/19 03:59:19;;;;;;;6.55;4.13;;;;;;;2.97;72.93;93407.66;5084733;28;20020;-87
2022/04/19 04:01:45;;;;;;;6.28;3.67;;;;;;;2.99;72.84;93414.25;5084561;28;20017;-87
2022/04/19 04:04:11;;;;;;;5.20;3.53;;;;;;;2.96;72.54;93416.66;5067044;28;20031;-85
2022/04/19 04:06:37;;;;;;;9.25;3.47;;;;;;;2.94;72.93;93416.91;5084660;28;20096;-86
2022/04/19 04:09:04;;;;;;;5.38;3.78;;;;;;;2.88;72.32;93423.28;5084568;28;20100;-86
2022/04/19 04:11:30;;;;;;;6.00;4.03;;;;;;;2.78;72.73;93423.34;5084489;28;20017;-87
2022/04/19 04:13:56;;;;;;;5.63;3.90;;;;;;;2.64;73.48;93407.41;5084645;28;20016;-87
2022/04/19 04:16:21;;;;;;;6.20;4.07;;;;;;;2.57;73.87;93420.88;5085048;28;20196;-93
2022/04/19 04:18:47;;;;;;;6.82;4.28;;;;;;;2.51;74.35;93414.06;5085733;28;20041;-93
2022/04/19 04:21:12;;;;;;;11.57;4.53;;;;;;;2.57;74.71;93423.50;5085867;28;20219;-93
2022/04/19 04:23:41;;;;;;;7.32;4.82;;;;;;;2.67;75.11;93427.13;5085458;28;20255;-93
2022/04/19 04:26:10;;;;;;;6.72;4.30;;;;;;;2.68;74.53;93418.94;5068061;28;20043;-93
2022/04/19 04:28:38;;;;;;;7.38;4.07;;;;;;;2.69;74.37;93425.03;5085122;28;20071;-92
2022/04/19 04:31:06;;;;;;;7.18;4.35;;;;;;;2.70;73.88;93418.69;5085170;28;20091;-93
2022/04/19 04:33:32;;;;;;;6.63;4.30;;;;;;;2.70;74.10;93431.84;5085025;28;20020;-88
2022/04/19 04:35:58;;;;;;;7.35;4.80;;;;;;;2.66;73.82;93426.31;5084446;28;20364;-89
2022/04/19 04:38:26;;;;;;;8.82;4.93;;;;;;;2.61;74.12;93424.53;5084088;28;20021;-90
2022/04/19 04:40:52;;;;;;;9.93;5.28;;;;;;;2.66;74.22;93431.59;5084319;28;20028;-88
2022/04/19 04:43:17;;;;;;;8.70;5.60;;;;;;;2.69;73.78;93435.53;5084574;28;20032;-89
2022/04/19 04:45:43;;;;;;;10.48;5.68;;;;;;;2.65;74.25;93434.53;5084551;28;20274;-89
2022/04/19 04:51:02;;;;;;;9.10;5.70;;;;;;;2.39;74.50;93430.19;5084729;28;20074;-89
2022/04/19 04:53:28;;;;;;;12.73;6.88;;;;;;;2.37;75.12;93444.66;5084443;28;20016;-89
2022/04/19 04:55:54;;;;;;;14.30;6.63;;;;;;;2.31;75.22;93445.75;5084538;28;20020;-90
2022/04/19 04:58:23;;;;;;;10.90;6.65;;;;;;;2.26;76.19;93451.84;5084303;28;20028;-91
2022/04/19 05:00:51;;;;;;;11.40;7.20;;;;;;;2.28;76.45;93454.16;5084641;28;20081;-90
2022/04/19 05:03:19;;;;;;;11.60;7.35;;;;;;;2.26;76.49;93449.22;5085265;28;20040;-94
2022/04/19 05:05:44;;;;;;;10.82;6.82;;;;;;;2.27;76.11;93450.00;5085156;28;20020;-89
2022/04/19 05:08:12;;;;;;;13.82;7.30;;;;;;;2.26;76.09;93457.09;5084187;28;20232;-89
2022/04/19 05:10:37;;;;;;;14.88;7.90;;;;;;;2.30;76.55;93460.75;5065753;28;20039;-86
2022/04/19 05:13:03;;;;;;;16.65;8.57;;;;;;;2.35;76.81;93447.56;5083752;28;20020;-92
2022/04/19 05:15:28;;;;;;;13.25;7.28;;;;;;;2.41;76.30;93449.09;5085209;28;20021;-91
2022/04/19 05:17:54;;;;;;;11.27;6.35;;;;;;;2.50;75.95;93446.69;5084425;28;20016;-92
2022/04/19 05:20:19;;;;;;;9.52;4.90;;;;;;;2.57;75.37;93449.81;5084526;28;20028;-91
2022/04/19 05:22:45;;;;;;;9.55;5.50;;;;;;;2.65;73.92;93445.81;5066797;28;20023;-92
2022/04/19 05:25:10;;;;;;;8.68;4.75;;;;;;;2.67;73.63;93459.50;5084559;28;20337;-92
2022/04/19 05:27:37;;;;;;;11.07;5.22;;;;;;;2.61;73.86;93456.09;5083717;28;20080;-88
2022/04/19 05:30:03;;;;;;;11.20;5.95;;;;;;;2.64;74.06;93451.34;5084150;28;20020;-92
2022/04/19 05:32:29;;;;;;;9.73;5.82;;;;;;;2.62;73.77;93449.00;5083392;28;20024;-90
2022/04/19 05:34:55;;;;;;;9.80;5.88;;;;;;;2.67;74.80;93463.97;5083532;28;20035;-88
2022/04/19 05:37:21;;;;;;;10.45;5.82;;;;;;;2.72;74.92;93458.66;5083391;28;20277;-89
2022/04/19 05:39:46;;;;;;;10.48;5.65;;;;;;;2.77;74.37;93462.06;5083706;28;20016;-91
2022/04/19 05:42:12;;;;;;;10.32;5.78;;;;;;;2.78;74.28;93465.47;5083884;28;20271;-90
2022/04/19 05:44:38;;;;;;;8.98;5.32;;;;;;;2.84;74.35;93471.50;5083446;28;20020;-92
2022/04/19 05:47:04;;;;;;;13.75;6.50;;;;;;;2.90;73.54;93467.75;5065586;28;20099;-91
2022/04/19 05:49:30;;;;;;;19.60;7.78;;;;;;;2.84;74.48;93469.63;5083805;28;20333;-91
2022/04/19 05:51:56;;;;;;;14.25;7.20;;;;;;;2.77;73.90;93474.44;5083687;28;20020;-90
2022/04/19 05:54:22;;;;;;;12.20;6.10;;;;;;;2.72;74.34;93474.47;5065326;28;20059;-88
2022/04/19 05:56:47;;;;;;;9.45;5.30;;;;;;;2.71;74.67;93475.53;5082439;28;20107;-89
2022/04/19 05:59:13;;;;;;;10.30;5.45;;;;;;;2.67;74.67;93463.97;5065940;28;20058;-91
2022/04/19 06:07:10;;;;;;;12.88;5.35;;;;;;;2.87;75.37;93477.00;5082920;28;20054;-85
2022/04/19 06:09:35;;;;;;;10.38;4.57;;;;;;;2.96;75.17;93480.59;5064768;28;20314;-84
2022/04/19 06:12:03;;;;;;;10.32;4.72;;;;;;;3.04;75.21;93483.72;5082759;28;20024;-84
2022/04/19 06:14:29;;;;;;;8.73;5.25;;;;;;;3.16;75.16;93482.31;5065650;28;20104;-89
2022/04/19 06:16:54;;;;;;;5.53;3.72;;;;;;;3.27;72.04;93483.00;5084811;28;20029;-84
2022/04/19 06:19:20;;;;;;;6.28;3.58;;;;;;;3.25;72.71;93489.63;5082526;28;20029;-85
2022/04/19 06:21:45;;;;;;;5.82;3.65;;;;;;;3.22;72.22;93483.84;5082531;28;20362;-85
2022/04/19 06:24:11;;;;;;;7.78;4.25;;;;;;;3.16;72.54;93481.53;5082520;28;20314;-86
2022/04/19 06:26:36;;;;;;;11.45;4.47;;;;;;;3.30;73.10;93489.59;5082587;28;20028;-87
2022/04/19 06:29:06;;;;;;;9.52;4.20;;;;;;;3.31;73.17;93478.75;5082607;28;20044;-84
2022/04/19 06:31:32;;;;;;;5.18;3.15;;;;;;;3.37;71.87;93490.03;5082578;28;20250;-85
2022/04/19 06:33:57;;;;;;;7.53;3.70;;;;;;;3.34;71.26;93495.88;5082292;28;20038;-85
2022/04/19 06:36:23;;;;;;;6.05;3.42;;;;;;;3.28;72.58;93489.06;5082474;28;20104;-85
2022/04/19 06:38:48;;;;;;;5.00;3.25;;;;;;;3.19;72.47;93491.50;5082326;28;20321;-86
2022/04/19 06:41:14;;;;;;;5.95;2.47;;;;;;;3.08;72.98;93508.44;5082185;28;20091;-86
2022/04/19 06:43:39;;;;;;;4.22;2.50;;;;;;;2.85;73.28;93497.53;5064479;28;20037;-82
2022/04/19 06:46:05;;;;;;;4.15;2.47;;;;;;;2.72;72.30;93492.88;5082527;28;20035;-85
2022/04/19 06:48:31;;;;;;;9.48;2.33;;;;;;;2.58;73.42;93493.47;5082504;28;20307;-86
2022/04/19 06:50:58;;;;;;;6.72;2.30;;;;;;;2.50;73.25;93496.66;5082556;28;20024;-80
2022/04/19 06:53:25;;;;;;;4.22;2.13;;;;;;;2.49;74.88;93497.75;5082043;28;20108;-78
2022/04/19 06:55:50;;;;;;;4.50;2.70;;;;;;;2.58;75.46;93503.22;5082298;28;20444;-76
2022/04/19 06:58:16;;;;;;;5.47;2.65;;;;;;;2.64;74.71;93502.13;5064469;28;20096;-76
2022/04/19 07:00:41;;;;;;;4.38;2.80;;;;;;;2.64;74.53;93507.38;5085846;28;20051;-76
2022/04/19 07:03:06;;;;;;;8.88;3.65;;;;;;;2.73;75.37;93507.63;5067845;28;20028;-75
2022/04/19 07:05:32;;;;;;;5.82;2.45;;;;;;;2.71;73.49;93504.47;5086084;28;20094;-82
2022/04/19 07:08:04;;;;;;;4.68;2.80;;;;;;;2.64;75.32;93511.88;5085838;28;20062;-77
2022/04/19 07:10:30;;;;;;;3.78;2.45;;;;;;;2.65;76.40;93513.47;5085940;28;20032;-83
2022/04/19 07:12:56;;;;;;;4.85;2.67;;;;;;;2.55;75.74;93520.34;5085479;28;20032;-75
2022/04/19 07:15:21;;;;;;;3.10;2.05;;;;;;;2.45;75.59;93515.13;5085628;28;20218;-76
2022/04/19 07:17:47;;;;;;;4.63;2.50;;;;;;;2.37;75.78;93515.69;5085487;28;20063;-78
2022/04/19 07:28:25;;;;;;;6.75;2.88;;;;;;;2.48;75.91;93513.78;5085454;28;20062;-85
2022/04/19 07:30:51;;;;;;;5.63;3.10;;;;;;;2.42;76.69;93520.91;5085416;28;20012;-78
2022/04/19 07:33:16;;;;;;;13.82;3.13;;;;;;;2.37;76.49;93524.34;5085431;28;20302;-78
2022/04/19 07:35:46;;;;;;;5.03;2.78;;;;;;;2.39;76.72;93526.72;5084212;28;20021;-80
2022/04/19 07:38:11;;;;;;;5.05;2.70;;;;;;;2.44;75.64;93524.06;5083238;28;20032;-79
2022/04/19 07:40:37;;;;;;;6.95;2.92;;;;;;;2.38;75.66;93520.69;5083307;28;20322;-77
2022/04/19 07:43:03;;;;;;;4.93;2.60;;;;;;;2.55;76.37;93517.69;5083936;28;20028;-78
2022/04/19 07:45:29;;;;;;;6.40;3.30;;;;;;;2.76;74.65;93528.13;5083755;28;20012;-79
2022/04/19 07:47:54;;;;;;;5.55;2.72;;;;;;;2.90;74.50;93521.19;5083481;28;20025;-80
2022/04/19 07:50:20;;;;;;;3.65;2.08;;;;;;;3.03;71.04;93524.28;5083656;28;20047;-80
2022/04/19 07:52:46;;;;;;;4.80;2.90;;;;;;;3.18;73.18;93534.72;5085633;28;20017;-80
2022/04/19 07:55:11;;;;;;;3.30;1.88;;;;;;;3.26;69.55;93531.50;5085994;28;20017;-80
2022/04/19 07:57:36;;;;;;;3.95;2.30;;;;;;;3.28;69.99;93516.19;5085129;28;20016;-80
2022/04/19 08:00:07;;;;;;;3.65;2.10;;;;;;;3.35;72.32;93526.41;5067151;28;20028;-78
2022/04/19 08:02:33;;;;;;;4.90;2.67;;;;;;;3.40;71.37;93516.63;5085112;28;20021;-81
2022/04/19 08:04:58;;;;;;;3.45;1.90;;;;;;;3.49;70.49;93521.31;5085171;28;20016;-80
2022/04/19 08:07:24;;;;;;;3.60;2.10;;;;;;;3.66;71.54;93516.38;5085017;28;20385;-79
2022/04/19 08:09:49;;;;;;;5.05;2.60;;;;;;;3.86;70.08;93525.19;5084588;28;20227;-78
2022/04/19 08:12:14;;;;;;;5.25;2.70;;;;;;;4.04;68.05;93521.06;5084915;28;20016;-79
2022/04/19 08:14:42;;;;;;;6.88;2.78;;;;;;;4.22;67.99;93529.00;5084802;28;20257;-78
2022/04/19 08:17:08;;;;;;;3.05;1.92;;;;;;;4.19;67.42;93528.78;5084332;28;20016;-78
2022/04/19 08:19:33;;;;;;;3.60;2.40;;;;;;;4.22;66.49;93529.00;5084547;28;20050;-82
2022/04/19 08:21:59;;;;;;;3.80;2.10;;;;;;;4.29;67.12;93527.88;5084534;28;20020;-81
2022/04/19 08:24:25;;;;;;;3.67;2.10;;;;;;;4.35;64.61;93532.03;5084229;28;20319;-79
2022/04/19 08:26:51;;;;;;;4.10;2.30;;;;;;;4.30;66.59;93511.78;5084190;28;20020;-80
2022/04/19 08:29:16;;;;;;;4.57;2.55;;;;;;;4.24;66.40;93520.81;5084166;28;20027;-81
2022/04/19 08:31:42;;;;;;;4.68;2.63;;;;;;;4.28;64.58;93515.78;5084255;28;20074;-78
2022/04/19 08:34:07;;;;;;;4.28;2.13;;;;;;;4.25;62.33;93513.69;5084145;28;20026;-82
2022/04/19 08:36:34;;;;;;;2.38;1.52;;;;;;;4.11;61.35;93516.22;5084232;28;20312;-81
2022/04/19 08:39:00;;;;;;;3.60;1.88;;;;;;;4.16;63.25;93514.31;5084172;28;20040;-83
2022/04/19 08:41:25;;;;;;;3.35;1.90;;;;;;;4.24;61.40;93517.41;5084166;28;20028;-81
2022/04/19 08:43:52;;;;;;;3.97;1.98;;;;;;;4.21;60.59;93510.81;5084187;28;20016;-82
2022/04/19 08:46:18;;;;;;;3.72;2.10;;;;;;;4.36;56.65;93512.53;5066126;28;20095;-81
2022/04/19 08:48:44;;;;;;;5.53;2.20;;;;;;;4.41;58.33;93507.16;5083966;28;20017;-80
2022/04/19 08:51:11;;;;;;;4.47;1.80;;;;;;;4.57;59.01;93503.25;5083950;28;20262;-78
2022/04/19 08:59:06;;;;;;;3.53;1.90;;;;;;;4.93;55.33;93502.78;5083535;28;20027;-84
2022/04/19 09:01:32;;;;;;;3.53;2.08;;;;;;;4.93;56.12;93507.28;5083806;28;20035;-82
2022/04/19 09:03:58;;;;;;;6.13;2.45;;;;;;;5.09;56.66;93492.00;5083435;28;20031;-79
2022/04/19 09:06:54;;;;;;;4.57;2.40;;;;;;;5.13;57.76;93504.34;5083653;28;20036;-82
2022/04/19 09:09:38;;;;;;;8.02;2.70;;;;;;;5.17;55.59;93493.97;5065694;28;20067;-81
2022/04/19 09:12:08;;;;;;;3.65;2.20;;;;;;;5.35;56.62;93485.25;5066146;28;20029;-82
2022/04/19 09:14:33;;;;;;;8.18;2.88;;;;;;;5.51;55.70;93493.72;5083565;28;20048;-81
2022/04/19 09:17:05;;;;;;;4.82;2.53;;;;;;;5.68;57.18;93495.03;5065610;28;20319;-81
2022/04/19 09:19:31;;;;;;;5.88;2.30;;;;;;;5.86;56.22;93498.69;5083365;28;20024;-81
2022/04/19 09:21:57;;;;;;;3.22;1.98;;;;;;;5.89;53.99;93495.47;5082307;28;20064;-82
2022/04/19 09:24:24;;;;;;;4.22;1.95;;;;;;;5.98;54.72;93491.88;5083319;28;20028;-81
2022/04/19 09:26:49;;;;;;;4.13;2.45;;;;;;;6.07;52.17;93494.63;5083133;28;20021;-80
2022/04/19 09:29:18;;;;;;;3.58;2.25;;;;;;;6.23;53.80;93484.53;5083223;28;20023;-80
2022/04/19 09:31:43;;;;;;;3.75;2.58;;;;;;;6.28;54.96;93483.66;5083030;28;20087;-81
2022/04/19 09:34:09;;;;;;;4.15;2.88;;;;;;;6.29;53.75;93480.72;5065230;28;20031;-81
2022/04/19 09:36:34;;;;;;;4.18;2.50;;;;;;;6.37;52.78;93487.16;5083251;28;20236;-82
2022/04/19 09:39:00;;;;;;;2.88;2.20;;;;;;;6.32;48.67;93484.63;5082961;28;20245;-82
2022/04/19 09:41:33;;;;;;;16.05;7.68;;;;;;;6.18;48.44;93493.34;5082786;28;20017;-81
2022/04/19 09:44:09;;;;;;;3.63;2.35;;;;;;;6.14;51.23;93487.06;5082965;28;20020;-82
2022/04/19 09:46:36;;;;;;;5.68;2.90;;;;;;;6.23;52.54;93490.63;5082994;28;20025;-82
2022/04/19 09:49:04;;;;;;;4.60;2.88;;;;;;;6.27;52.35;93482.06;5082941;28;20021;-81
2022/04/19 09:51:31;;;;;;;8.13;3.10;;;;;;;6.33;51.77;93475.59;5065045;28;20016;-82
2022/04/19 09:53:57;;;;;;;4.38;3.15;;;;;;;6.38;49.29;93486.09;5082692;28;20024;-81
2022/04/19 09:56:23;;;;;;;6.72;3.67;;;;;;;6.28;50.66;93473.84;5082657;28;20254;-80
2022/04/19 09:58:50;;;;;;;6.50;3.13;;;;;;;6.15;47.72;93479.94;5082792;28;20340;-80
2022/04/19 10:09:37;;;;;;;5.73;2.60;;;;;;;6.37;45.29;93477.38;5082500;28;20020;-80
2022/04/19 10:12:04;;;;;;;4.35;2.45;;;;;;;6.40;46.13;93476.78;5082396;28;20020;-77
2022/04/19 10:14:31;;;;;;;10.13;3.25;;;;;;;6.49;46.51;93476.84;5064406;28;20024;-77
2022/04/19 10:17:01;;;;;;;4.40;2.33;;;;;;;6.65;45.61;93472.03;5082432;28;20047;-76
2022/04/19 10:19:27;;;;;;;3.05;1.95;;;;;;;6.71;44.63;93464.75;5082132;28;20096;-76
2022/04/19 10:21:54;;;;;;;5.78;2.50;;;;;;;6.89;46.98;93471.78;5082050;28;20030;-79
2022/04/19 10:24:20;;;;;;;9.23;2.60;;;;;;;7.03;46.45;93480.47;5082250;28;20215;-78
2022/04/19 10:26:51;;;;;;;4.05;2.22;;;;;;;7.12;45.47;93467.28;5082437;28;20028;-80
2022/04/19 10:29:21;;;;;;;3.92;2.35;;;;;;;7.15;45.69;93461.41;5082423;28;20062;-79
2022/04/19 10:32:03;;;;;;;4.75;2.40;;;;;;;6.94;45.40;93474.34;5082027;28;20017;-77
2022/04/19 10:34:31;;;;;;;4.85;2.33;;;;;;;6.98;43.00;93454.09;5085832;28;20070;-79
2022/04/19 10:37:18;;;;;;;3.67;2.40;;;;;;;7.22;46.43;93450.38;5085832;28;20420;-78
2022/04/19 10:39:50;;;;;;;4.00;2.35;;;;;;;7.35;44.98;93452.19;5086081;28;20025;-78
2022/04/19 10:42:28;;;;;;;4.18;2.20;;;;;;;7.40;43.18;93453.91;5085941;28;20087;-78
2022/04/19 10:44:55;;;;;;;3.80;1.92;;;;;;;7.28;41.58;93459.75;5086033;28;20020;-81
2022/04/19 10:47:28;;;;;;;3.00;1.75;;;;;;;7.35;42.99;93462.78;5086001;28;20048;-79
2022/04/19 10:49:57;;;;;;;4.88;2.38;;;;;;;7.40;41.01;93460.00;5086060;28;20016;-82
2022/04/19 10:52:38;;;;;;;4.70;2.03;;;;;;;7.44;42.43;93466.25;5085900;28;20054;-80
2022/04/19 10:55:10;;;;;;;4.32;1.63;;;;;;;7.42;39.75;93468.44;5086079;28;20031;-85
2022/04/19 11:00:34;;;;;;;3.33;1.85;;;;;;;7.14;41.19;93465.13;5086064;28;20040;-79
2022/04/19 11:03:02;;;;;;;5.15;2.30;;;;;;;6.92;42.21;93460.59;5085893;28;20036;-81
2022/04/19 11:05:34;;;;;;;3.33;2.22;;;;;;;6.41;45.02;93474.91;5085629;28;20024;-80
2022/04/19 11:08:20;;;;;;;4.07;1.45;;;;;;;6.19;44.70;93468.47;5085376;28;20055;-80
2022/04/19 11:10:46;;;;;;;2.85;1.60;;;;;;;6.28;43.70;93467.78;5085363;28;20226;-79
2022/04/19 11:13:12;;;;;;;4.55;2.03;;;;;;;6.32;42.67;93460.81;5085431;28;20058;-81
2022/04/19 11:15:38;;;;;;;3.25;1.70;;;;;;;6.43;43.05;93465.59;5085675;28;20291;-81
2022/04/19 11:18:23;;;;;;;2.42;1.40;;;;;;;6.68;43.53;93446.84;5085637;28;20095;-83
2022/04/19 11:20:49;;;;;;;5.25;2.55;;;;;;;7.08;44.03;93444.34;5085223;28;20028;-80
2022/04/19 11:23:24;;;;;;;4.10;1.90;;;;;;;7.56;39.16;93449.03;5085190;28;20196;-82
2022/04/19 11:25:51;;;;;;;8.25;1.55;;;;;;;7.79;39.55;93439.16;5067507;28;20024;-82
2022/04/19 11:28:28;;;;;;;9.18;2.25;;;;;;;8.04;37.07;93435.84;5085066;28;20044;-81
2022/04/19 11:30:57;;;;;;;3.38;1.90;;;;;;;8.11;35.83;93435.38;5085011;28;20040;-82
2022/04/19 11:33:33;;;;;;;2.50;1.70;;;;;;;8.21;37.49;93435.09;5085189;28;20028;-82
2022/04/19 11:36:03;;;;;;;3.13;1.92;;;;;;;8.34;38.14;93435.28;5085040;28;20031;-80
2022/04/19 11:38:30;;;;;;;3.22;1.85;;;;;;;8.50;37.45;93440.97;5084944;28;20020;-80
2022/04/19 11:46:44;;;;;;;5.25;1.83;;;;;;;8.62;36.70;93431.31;5084666;28;20031;-81
2022/04/19 11:49:18;;;;;;;3.92;1.98;;;;;;;8.65;36.67;93421.94;5084924;28;20039;-80
2022/04/19 11:51:49;;;;;;;2.17;1.25;;;;;;;8.61;32.68;93437.72;5084648;28;20095;-85
2022/04/19 11:54:20;;;;;;;3.67;1.70;;;;;;;8.49;31.86;93429.59;5084724;28;20051;-81
2022/04/19 11:56:48;;;;;;;3.40;1.55;;;;;;;8.44;32.64;93427.06;5084822;28;20044;-80
2022/04/19 11:59:14;;;;;;;4.20;1.77;;;;;;;8.40;34.56;93434.81;5084444;28;20066;-77
2022/04/19 12:01:48;;;;;;;4.93;1.75;;;;;;;8.27;34.66;93435.75;5084603;28;20204;-75
2022/04/19 12:04:14;;;;;;;10.48;2.10;;;;;;;8.04;37.75;93440.38;5084337;28;20035;-78
2022/04/19 12:06:45;;;;;;;4.30;1.73;;;;;;;7.84;40.86;93455.72;5084320;28;20035;-79
2022/04/19 12:09:15;;;;;;;2.20;1.63;;;;;;;7.63;40.35;93459.97;5084572;28;20031;-77
2022/04/19 12:11:41;;;;;;;3.80;2.08;;;;;;;7.28;42.97;93453.69;5084381;28;20024;-76
2022/04/19 12:14:07;;;;;;;4.28;2.00;;;;;;;7.18;42.80;93454.69;5084276;28;20027;-79
2022/04/19 12:16:34;;;;;;;4.47;2.00;;;;;;;7.18;42.16;93455.47;5084479;28;20024;-81
2022/04/19 12:19:02;;;;;;;3.10;1.75;;;;;;;7.25;42.33;93443.69;5084188;28;20021;-80
2022/04/19 12:21:38;;;;;;;6.05;2.42;;;;;;;7.41;42.52;93429.75;5084267;28;20323;-83
2022/04/19 12:24:06;;;;;;;2.85;1.60;;;;;;;7.70;41.56;93428.50;5066407;28;20020;-81
2022/04/19 12:26:31;;;;;;;6.03;2.20;;;;;;;8.06;41.41;93424.09;5066356;28;20091;-80
2022/04/19 12:29:09;;;;;;;5.63;2.22;;;;;;;8.42;39.33;93415.97;5083955;28;20036;-83